sensor_id;sensor_type;location;lat;lon;timestamp;pressure;altitude;pressure_sealevel;temperature;humidity
39275;BME280;24980;48.874;2.332;2023-02-11T00:00:06;103302.00;;;24.68;35.42
39275;BME280;24980;48.874;2.332;2023-02-11T00:02:33;103307.78;;;24.70;35.51
39275;BME280;24980;48.874;2.332;2023-02-11T00:05:03;103299.41;;;24.70;35.60
39275;BME280;24980;48.874;2.332;2023-02-11T00:07:34;103296.88;;;24.71;35.67
39275;BME280;24980;48.874;2.332;2023-02-11T00:10:04;103289.50;;;24.71;35.73
39275;BME280;24980;48.874;2.332;2023-02-11T00:12:35;103284.00;;;24.72;35.78
39275;BME280;24980;48.874;2.332;2023-02-11T00:15:06;103287.22;;;24.73;35.83
39275;BME280;24980;48.874;2.332;2023-02-11T00:17:36;103287.07;;;24.74;35.87
39275;BME280;24980;48.874;2.332;2023-02-11T00:20:06;103286.13;;;24.74;35.92
39275;BME280;24980;48.874;2.332;2023-02-11T00:22:36;103285.20;;;24.74;35.96
39275;BME280;24980;48.874;2.332;2023-02-11T00:25:06;103286.39;;;24.74;36.01
39275;BME280;24980;48.874;2.332;2023-02-11T00:27:36;103288.39;;;24.72;36.05
39275;BME280;24980;48.874;2.332;2023-02-11T00:30:07;103285.02;;;24.72;36.10
39275;BME280;24980;48.874;2.332;2023-02-11T00:35:20;103282.88;;;24.71;36.17
39275;BME280;24980;48.874;2.332;2023-02-11T00:37:38;103278.66;;;24.72;36.20
39275;BME280;24980;48.874;2.332;2023-02-11T00:42:41;103282.55;;;24.72;36.25
39275;BME280;24980;48.874;2.332;2023-02-11T00:45:10;103277.55;;;24.71;36.28
39275;BME280;24980;48.874;2.332;2023-02-11T00:47:39;103278.12;;;24.71;36.31
39275;BME280;24980;48.874;2.332;2023-02-11T00:50:10;103282.67;;;24.70;36.34
39275;BME280;24980;48.874;2.332;2023-02-11T00:52:40;103283.36;;;24.70;36.37
39275;BME280;24980;48.874;2.332;2023-02-11T00:55:10;103280.66;;;24.69;36.38
39275;BME280;24980;48.874;2.332;2023-02-11T00:57:40;103278.62;;;24.69;36.40
39275;BME280;24980;48.874;2.332;2023-02-11T01:00:14;103274.55;;;24.69;36.41
39275;BME280;24980;48.874;2.332;2023-02-11T01:02:44;103275.91;;;24.69;36.43
39275;BME280;24980;48.874;2.332;2023-02-11T01:05:11;103275.22;;;24.70;36.45
39275;BME280;24980;48.874;2.332;2023-02-11T01:07:41;103272.58;;;24.69;36.47
39275;BME280;24980;48.874;2.332;2023-02-11T01:10:12;103264.80;;;24.70;36.48
39275;BME280;24980;48.874;2.332;2023-02-11T01:12:47;103254.89;;;24.71;36.48
39275;BME280;24980;48.874;2.332;2023-02-11T01:15:15;103254.22;;;24.71;36.50
39275;BME280;24980;48.874;2.332;2023-02-11T01:17:42;103259.20;;;24.70;36.53
39275;BME280;24980;48.874;2.332;2023-02-11T01:20:18;103264.78;;;24.69;36.56
39275;BME280;24980;48.874;2.332;2023-02-11T01:22:42;103266.56;;;24.70;36.57
39275;BME280;24980;48.874;2.332;2023-02-11T01:25:15;103265.38;;;24.70;36.58
39275;BME280;24980;48.874;2.332;2023-02-11T01:27:42;103258.85;;;24.70;36.60
39275;BME280;24980;48.874;2.332;2023-02-11T01:30:13;103259.81;;;24.71;36.60
39275;BME280;24980;48.874;2.332;2023-02-11T01:32:44;103259.03;;;24.70;36.63
39275;BME280;24980;48.874;2.332;2023-02-11T01:35:13;103261.64;;;24.70;36.65
39275;BME280;24980;48.874;2.332;2023-02-11T01:37:43;103254.69;;;24.68;36.66
39275;BME280;24980;48.874;2.332;2023-02-11T01:40:15;103252.16;;;24.69;36.67
39275;BME280;24980;48.874;2.332;2023-02-11T01:42:43;103252.58;;;24.68;36.69
39275;BME280;24980;48.874;2.332;2023-02-11T01:47:44;103256.81;;;24.70;36.72
39275;BME280;24980;48.874;2.332;2023-02-11T01:50:15;103259.71;;;24.70;36.74
39275;BME280;24980;48.874;2.332;2023-02-11T01:52:47;103258.61;;;24.71;36.75
39275;BME280;24980;48.874;2.332;2023-02-11T01:55:15;103258.02;;;24.70;36.77
39275;BME280;24980;48.874;2.332;2023-02-11T01:57:49;103257.33;;;24.70;36.78
39275;BME280;24980;48.874;2.332;2023-02-11T02:00:19;103257.26;;;24.71;36.81
39275;BME280;24980;48.874;2.332;2023-02-11T02:03:05;103253.92;;;24.69;36.83
39275;BME280;24980;48.874;2.332;2023-02-11T02:10:22;103248.77;;;24.69;36.88
39275;BME280;24980;48.874;2.332;2023-02-11T02:12:49;103247.91;;;24.70;36.90
39275;BME280;24980;48.874;2.332;2023-02-11T02:15:28;103246.23;;;24.71;36.90
39275;BME280;24980;48.874;2.332;2023-02-11T02:18:02;103244.86;;;24.70;36.91
39275;BME280;24980;48.874;2.332;2023-02-11T02:20:31;103242.77;;;24.71;36.92
39275;BME280;24980;48.874;2.332;2023-02-11T02:28:10;103224.77;;;24.70;36.97
39275;BME280;24980;48.874;2.332;2023-02-11T02:30:52;103225.19;;;24.70;36.99
39275;BME280;24980;48.874;2.332;2023-02-11T02:38:00;103227.19;;;24.74;37.07
39275;BME280;24980;48.874;2.332;2023-02-11T02:40:29;103228.30;;;24.76;37.09
39275;BME280;24980;48.874;2.332;2023-02-11T02:42:56;103228.47;;;24.76;37.11
39275;BME280;24980;48.874;2.332;2023-02-11T02:45:25;103227.97;;;24.75;37.10
39275;BME280;24980;48.874;2.332;2023-02-11T02:47:56;103219.64;;;24.74;37.12
39275;BME280;24980;48.874;2.332;2023-02-11T02:50:30;103221.41;;;24.73;37.13
39275;BME280;24980;48.874;2.332;2023-02-11T02:53:31;103221.73;;;24.72;37.15
39275;BME280;24980;48.874;2.332;2023-02-11T02:55:41;103218.02;;;24.72;37.16
39275;BME280;24980;48.874;2.332;2023-02-11T03:00:47;103211.56;;;24.73;37.17
39275;BME280;24980;48.874;2.332;2023-02-11T03:05:48;103210.57;;;24.74;37.15
39275;BME280;24980;48.874;2.332;2023-02-11T03:08:15;103204.55;;;24.74;37.15
39275;BME280;24980;48.874;2.332;2023-02-11T03:10:34;103208.86;;;24.73;37.15
39275;BME280;24980;48.874;2.332;2023-02-11T03:13:02;103210.56;;;24.72;37.17
39275;BME280;24980;48.874;2.332;2023-02-11T03:15:33;103204.35;;;24.71;37.18
39275;BME280;24980;48.874;2.332;2023-02-11T03:18:02;103207.06;;;24.71;37.18
39275;BME280;24980;48.874;2.332;2023-02-11T03:20:35;103210.64;;;24.72;37.19
39275;BME280;24980;48.874;2.332;2023-02-11T03:23:18;103212.06;;;24.72;37.20
39275;BME280;24980;48.874;2.332;2023-02-11T03:25:41;103205.89;;;24.73;37.21
39275;BME280;24980;48.874;2.332;2023-02-11T03:28:31;103205.50;;;24.74;37.21
39275;BME280;24980;48.874;2.332;2023-02-11T03:30:42;103203.98;;;24.75;37.21
39275;BME280;24980;48.874;2.332;2023-02-11T03:33:17;103202.88;;;24.75;37.22
39275;BME280;24980;48.874;2.332;2023-02-11T03:35:42;103204.50;;;24.75;37.25
39275;BME280;24980;48.874;2.332;2023-02-11T03:38:10;103206.25;;;24.76;37.28
39275;BME280;24980;48.874;2.332;2023-02-11T03:40:38;103203.14;;;24.77;37.30
39275;BME280;24980;48.874;2.332;2023-02-11T03:43:13;103203.84;;;24.78;37.31
39275;BME280;24980;48.874;2.332;2023-02-11T03:45:38;103200.38;;;24.79;37.33
39275;BME280;24980;48.874;2.332;2023-02-11T03:50:41;103197.97;;;24.82;37.35
39275;BME280;24980;48.874;2.332;2023-02-11T03:53:12;103196.03;;;24.83;37.35
39275;BME280;24980;48.874;2.332;2023-02-11T03:55:42;103201.39;;;24.83;37.35
39275;BME280;24980;48.874;2.332;2023-02-11T03:58:11;103195.36;;;24.83;37.34
39275;BME280;24980;48.874;2.332;2023-02-11T04:00:42;103195.11;;;24.83;37.34
39275;BME280;24980;48.874;2.332;2023-02-11T04:03:12;103194.20;;;24.85;37.34
39275;BME280;24980;48.874;2.332;2023-02-11T04:05:47;103198.11;;;24.85;37.34
39275;BME280;24980;48.874;2.332;2023-02-11T04:08:13;103200.98;;;24.86;37.35
39275;BME280;24980;48.874;2.332;2023-02-11T04:10:44;103201.08;;;24.86;37.35
39275;BME280;24980;48.874;2.332;2023-02-11T04:13:14;103204.59;;;24.88;37.34
39275;BME280;24980;48.874;2.332;2023-02-11T04:15:44;103202.72;;;24.87;37.35
39275;BME280;24980;48.874;2.332;2023-02-11T04:18:14;103208.73;;;24.87;37.36
39275;BME280;24980;48.874;2.332;2023-02-11T04:20:45;103212.88;;;24.87;37.38
39275;BME280;24980;48.874;2.332;2023-02-11T04:23:15;103212.30;;;24.87;37.39
39275;BME280;24980;48.874;2.332;2023-02-11T04:25:45;103208.75;;;24.89;37.39
39275;BME280;24980;48.874;2.332;2023-02-11T04:28:15;103212.34;;;24.90;37.41
39275;BME280;24980;48.874;2.332;2023-02-11T04:30:51;103216.25;;;24.91;37.42
39275;BME280;24980;48.874;2.332;2023-02-11T04:33:19;103218.47;;;24.92;37.42
39275;BME280;24980;48.874;2.332;2023-02-11T04:35:48;103218.37;;;24.92;37.42
39275;BME280;24980;48.874;2.332;2023-02-11T04:38:18;103218.47;;;24.92;37.41
39275;BME280;24980;48.874;2.332;2023-02-11T04:40:49;103225.59;;;24.93;37.41
39275;BME280;24980;48.874;2.332;2023-02-11T04:43:19;103222.78;;;24.92;37.40
39275;BME280;24980;48.874;2.332;2023-02-11T04:45:50;103223.73;;;24.93;37.40
39275;BME280;24980;48.874;2.332;2023-02-11T04:48:20;103223.47;;;24.93;37.40
39275;BME280;24980;48.874;2.332;2023-02-11T04:50:51;103220.78;;;24.94;37.39
39275;BME280;24980;48.874;2.332;2023-02-11T04:53:21;103217.83;;;24.95;37.39
39275;BME280;24980;48.874;2.332;2023-02-11T04:55:52;103217.48;;;24.96;37.39
39275;BME280;24980;48.874;2.332;2023-02-11T04:58:22;103212.99;;;24.96;37.39
39275;BME280;24980;48.874;2.332;2023-02-11T05:00:59;103207.20;;;24.95;37.40
39275;BME280;24980;48.874;2.332;2023-02-11T05:03:22;103206.45;;;24.94;37.42
39275;BME280;24980;48.874;2.332;2023-02-11T05:05:52;103205.44;;;24.95;37.42
39275;BME280;24980;48.874;2.332;2023-02-11T05:08:22;103206.70;;;24.95;37.42
39275;BME280;24980;48.874;2.332;2023-02-11T05:10:53;103201.62;;;24.96;37.42
39275;BME280;24980;48.874;2.332;2023-02-11T05:13:24;103196.22;;;24.97;37.43
39275;BME280;24980;48.874;2.332;2023-02-11T05:15:53;103190.89;;;25.00;37.45
39275;BME280;24980;48.874;2.332;2023-02-11T05:18:24;103196.84;;;25.01;37.51
39275;BME280;24980;48.874;2.332;2023-02-11T05:20:53;103198.72;;;25.01;37.56
39275;BME280;24980;48.874;2.332;2023-02-11T05:23:23;103195.57;;;25.00;37.59
39275;BME280;24980;48.874;2.332;2023-02-11T05:25:53;103192.09;;;25.02;37.60
39275;BME280;24980;48.874;2.332;2023-02-11T05:28:24;103193.35;;;25.01;37.59
39275;BME280;24980;48.874;2.332;2023-02-11T05:30:54;103187.95;;;25.03;37.58
39275;BME280;24980;48.874;2.332;2023-02-11T05:33:24;103184.25;;;25.04;37.57
39275;BME280;24980;48.874;2.332;2023-02-11T05:36:03;103182.27;;;25.05;37.55
39275;BME280;24980;48.874;2.332;2023-02-11T05:40:55;103182.80;;;25.04;37.55
39275;BME280;24980;48.874;2.332;2023-02-11T05:43:25;103186.18;;;25.03;37.55
39275;BME280;24980;48.874;2.332;2023-02-11T05:45:56;103186.52;;;25.03;37.55
39275;BME280;24980;48.874;2.332;2023-02-11T05:48:26;103183.20;;;25.04;37.53
39275;BME280;24980;48.874;2.332;2023-02-11T05:50:56;103179.06;;;25.05;37.53
39275;BME280;24980;48.874;2.332;2023-02-11T05:53:26;103181.37;;;25.06;37.53
39275;BME280;24980;48.874;2.332;2023-02-11T05:55:56;103183.75;;;25.06;37.52
39275;BME280;24980;48.874;2.332;2023-02-11T05:58:26;103183.41;;;25.06;37.51
39275;BME280;24980;48.874;2.332;2023-02-11T06:00:57;103185.84;;;25.05;37.51
39275;BME280;24980;48.874;2.332;2023-02-11T06:03:28;103188.89;;;25.05;37.53
39275;BME280;24980;48.874;2.332;2023-02-11T06:05:57;103191.12;;;25.04;37.51
39275;BME280;24980;48.874;2.332;2023-02-11T06:08:27;103186.26;;;25.04;37.51
39275;BME280;24980;48.874;2.332;2023-02-11T06:10:57;103179.23;;;25.05;37.51
39275;BME280;24980;48.874;2.332;2023-02-11T06:13:28;103173.64;;;25.06;37.51
39275;BME280;24980;48.874;2.332;2023-02-11T06:16:01;103174.40;;;25.05;37.51
39275;BME280;24980;48.874;2.332;2023-02-11T06:18:28;103175.01;;;25.06;37.52
39275;BME280;24980;48.874;2.332;2023-02-11T06:20:59;103180.16;;;25.05;37.53
39275;BME280;24980;48.874;2.332;2023-02-11T06:23:29;103191.38;;;25.06;37.51
39275;BME280;24980;48.874;2.332;2023-02-11T06:26:04;103195.20;;;25.06;37.53
39275;BME280;24980;48.874;2.332;2023-02-11T06:28:30;103203.27;;;25.06;37.54
39275;BME280;24980;48.874;2.332;2023-02-11T06:31:06;103203.27;;;25.06;37.55
39275;BME280;24980;48.874;2.332;2023-02-11T06:33:31;103198.26;;;25.06;37.57
39275;BME280;24980;48.874;2.332;2023-02-11T06:36:01;103192.84;;;25.07;37.57
39275;BME280;24980;48.874;2.332;2023-02-11T06:38:32;103196.00;;;25.07;37.58
39275;BME280;24980;48.874;2.332;2023-02-11T06:41:02;103203.35;;;25.08;37.60
39275;BME280;24980;48.874;2.332;2023-02-11T06:43:33;103206.69;;;25.07;37.61
39275;BME280;24980;48.874;2.332;2023-02-11T06:46:11;103203.03;;;25.09;37.61
39275;BME280;24980;48.874;2.332;2023-02-11T06:48:36;103201.45;;;25.10;37.62
39275;BME280;24980;48.874;2.332;2023-02-11T06:51:08;103201.95;;;25.11;37.61
39275;BME280;24980;48.874;2.332;2023-02-11T06:53:36;103204.80;;;25.13;37.61
39275;BME280;24980;48.874;2.332;2023-02-11T06:56:07;103201.73;;;25.14;37.59
39275;BME280;24980;48.874;2.332;2023-02-11T06:58:36;103209.39;;;25.15;37.60
39275;BME280;24980;48.874;2.332;2023-02-11T07:01:08;103218.12;;;25.15;37.61
39275;BME280;24980;48.874;2.332;2023-02-11T07:03:38;103224.58;;;25.15;37.62
39275;BME280;24980;48.874;2.332;2023-02-11T07:06:09;103228.72;;;25.15;37.65
39275;BME280;24980;48.874;2.332;2023-02-11T07:08:39;103238.02;;;25.11;37.70
39275;BME280;24980;48.874;2.332;2023-02-11T07:11:10;103242.88;;;25.04;37.62
39275;BME280;24980;48.874;2.332;2023-02-11T07:13:41;103241.55;;;24.93;37.47
39275;BME280;24980;48.874;2.332;2023-02-11T07:16:12;103239.28;;;24.82;37.30
39275;BME280;24980;48.874;2.332;2023-02-11T07:18:44;103239.81;;;24.73;37.15
39275;BME280;24980;48.874;2.332;2023-02-11T07:23:40;103241.45;;;24.56;36.90
39275;BME280;24980;48.874;2.332;2023-02-11T07:26:16;103245.34;;;24.56;36.81
39275;BME280;24980;48.874;2.332;2023-02-11T07:28:46;103254.51;;;24.63;36.76
39275;BME280;24980;48.874;2.332;2023-02-11T07:31:14;103263.57;;;24.67;36.77
39275;BME280;24980;48.874;2.332;2023-02-11T07:33:42;103260.41;;;24.71;36.82
39275;BME280;24980;48.874;2.332;2023-02-11T07:36:14;103264.88;;;24.76;36.88
39275;BME280;24980;48.874;2.332;2023-02-11T07:38:44;103257.38;;;24.80;36.93
39275;BME280;24980;48.874;2.332;2023-02-11T07:41:16;103255.43;;;24.84;36.98
39275;BME280;24980;48.874;2.332;2023-02-11T07:43:44;103251.30;;;24.84;37.04
39275;BME280;24980;48.874;2.332;2023-02-11T07:46:16;103254.86;;;24.86;37.08
39275;BME280;24980;48.874;2.332;2023-02-11T07:48:45;103253.45;;;24.88;37.08
39275;BME280;24980;48.874;2.332;2023-02-11T07:51:21;103257.29;;;24.90;37.07
39275;BME280;24980;48.874;2.332;2023-02-11T07:53:48;103258.08;;;24.91;37.07
39275;BME280;24980;48.874;2.332;2023-02-11T07:56:17;103254.01;;;24.91;37.08
39275;BME280;24980;48.874;2.332;2023-02-11T07:58:46;103260.62;;;24.92;37.12
39275;BME280;24980;48.874;2.332;2023-02-11T08:01:19;103261.06;;;24.93;37.14
39275;BME280;24980;48.874;2.332;2023-02-11T08:03:46;103256.14;;;24.93;37.18
39275;BME280;24980;48.874;2.332;2023-02-11T08:06:18;103247.48;;;24.93;37.19
39275;BME280;24980;48.874;2.332;2023-02-11T08:08:49;103251.98;;;24.93;37.19
39275;BME280;24980;48.874;2.332;2023-02-11T08:11:19;103254.48;;;24.95;37.20
39275;BME280;24980;48.874;2.332;2023-02-11T08:13:48;103252.84;;;24.95;37.22
39275;BME280;24980;48.874;2.332;2023-02-11T08:16:22;103252.52;;;24.96;37.27
39275;BME280;24980;48.874;2.332;2023-02-11T08:18:50;103249.23;;;24.97;37.29
39275;BME280;24980;48.874;2.332;2023-02-11T08:21:19;103253.21;;;24.96;37.37
39275;BME280;24980;48.874;2.332;2023-02-11T08:23:50;103253.28;;;24.96;37.44
39275;BME280;24980;48.874;2.332;2023-02-11T08:26:22;103248.17;;;24.95;37.51
39275;BME280;24980;48.874;2.332;2023-02-11T08:28:51;103248.03;;;24.95;37.56
39275;BME280;24980;48.874;2.332;2023-02-11T08:31:25;103255.66;;;24.95;37.62
39275;BME280;24980;48.874;2.332;2023-02-11T08:33:56;103261.27;;;24.95;37.67
39275;BME280;24980;48.874;2.332;2023-02-11T08:36:23;103261.25;;;24.96;37.69
39275;BME280;24980;48.874;2.332;2023-02-11T08:38:54;103256.19;;;24.97;37.71
39275;BME280;24980;48.874;2.332;2023-02-11T08:41:23;103262.22;;;24.97;37.77
39275;BME280;24980;48.874;2.332;2023-02-11T08:43:53;103265.02;;;24.97;37.80
39275;BME280;24980;48.874;2.332;2023-02-11T08:46:24;103269.25;;;24.97;37.85
39275;BME280;24980;48.874;2.332;2023-02-11T08:48:54;103270.67;;;24.96;37.89
39275;BME280;24980;48.874;2.332;2023-02-11T08:51:27;103269.47;;;24.94;37.93
39275;BME280;24980;48.874;2.332;2023-02-11T08:53:55;103267.09;;;24.93;37.96
39275;BME280;24980;48.874;2.332;2023-02-11T08:56:25;103270.29;;;24.92;37.97
39275;BME280;24980;48.874;2.332;2023-02-11T08:58:55;103275.88;;;24.90;37.99
39275;BME280;24980;48.874;2.332;2023-02-11T09:01:28;103279.94;;;24.90;38.00
39275;BME280;24980;48.874;2.332;2023-02-11T09:03:57;103281.71;;;24.89;38.00
39275;BME280;24980;48.874;2.332;2023-02-11T09:06:29;103275.02;;;24.88;38.00
39275;BME280;24980;48.874;2.332;2023-02-11T09:08:57;103279.12;;;24.86;38.01
39275;BME280;24980;48.874;2.332;2023-02-11T09:11:30;103279.95;;;24.84;38.03
39275;BME280;24980;48.874;2.332;2023-02-11T09:13:58;103279.33;;;24.83;38.03
39275;BME280;24980;48.874;2.332;2023-02-11T09:16:32;103281.78;;;24.82;38.01
39275;BME280;24980;48.874;2.332;2023-02-11T09:19:00;103276.81;;;24.80;38.02
39275;BME280;24980;48.874;2.332;2023-02-11T09:21:29;103272.91;;;24.80;38.02
39275;BME280;24980;48.874;2.332;2023-02-11T09:23:59;103275.36;;;24.80;38.02
39275;BME280;24980;48.874;2.332;2023-02-11T09:26:32;103274.69;;;24.79;38.03
39275;BME280;24980;48.874;2.332;2023-02-11T09:29:02;103274.69;;;24.79;38.02
39275;BME280;24980;48.874;2.332;2023-02-11T09:31:32;103276.36;;;24.78;38.02
39275;BME280;24980;48.874;2.332;2023-02-11T09:34:03;103276.08;;;24.76;38.02
39275;BME280;24980;48.874;2.332;2023-02-11T09:36:37;103278.78;;;24.75;38.03
39275;BME280;24980;48.874;2.332;2023-02-11T09:39:07;103278.36;;;24.76;38.03
39275;BME280;24980;48.874;2.332;2023-02-11T09:42:03;103282.39;;;24.78;38.04
39275;BME280;24980;48.874;2.332;2023-02-11T09:44:06;103285.52;;;24.78;38.09
39275;BME280;24980;48.874;2.332;2023-02-11T09:46:40;103286.60;;;24.77;38.12
39275;BME280;24980;48.874;2.332;2023-02-11T09:49:05;103285.73;;;24.76;38.12
39275;BME280;24980;48.874;2.332;2023-02-11T09:51:47;103285.22;;;24.76;38.10
39275;BME280;24980;48.874;2.332;2023-02-11T09:54:20;103280.89;;;24.76;38.08
39275;BME280;24980;48.874;2.332;2023-02-11T09:56:35;103284.05;;;24.75;38.07
39275;BME280;24980;48.874;2.332;2023-02-11T09:59:09;103287.00;;;24.74;38.04
39275;BME280;24980;48.874;2.332;2023-02-11T10:01:46;103286.38;;;24.73;38.02
39275;BME280;24980;48.874;2.332;2023-02-11T10:06:44;103286.97;;;24.73;38.00
39275;BME280;24980;48.874;2.332;2023-02-11T10:19:25;103291.43;;;24.70;37.97
39275;BME280;24980;48.874;2.332;2023-02-11T10:24:13;103280.83;;;24.70;37.97
39275;BME280;24980;48.874;2.332;2023-02-11T10:26:42;103283.66;;;24.71;37.96
39275;BME280;24980;48.874;2.332;2023-02-11T10:29:23;103286.68;;;24.70;37.95
39275;BME280;24980;48.874;2.332;2023-02-11T10:31:46;103287.26;;;24.70;37.96
39275;BME280;24980;48.874;2.332;2023-02-11T10:34:15;103287.44;;;24.70;37.95
39275;BME280;24980;48.874;2.332;2023-02-11T10:36:44;103288.80;;;24.70;37.97
39275;BME280;24980;48.874;2.332;2023-02-11T10:39:19;103293.28;;;24.68;38.01
39275;BME280;24980;48.874;2.332;2023-02-11T10:41:47;103296.63;;;24.67;38.07
39275;BME280;24980;48.874;2.332;2023-02-11T10:44:38;103292.82;;;24.65;38.08
39275;BME280;24980;48.874;2.332;2023-02-11T10:46:46;103293.62;;;24.64;38.09
39275;BME280;24980;48.874;2.332;2023-02-11T10:49:41;103296.76;;;24.62;38.09
39275;BME280;24980;48.874;2.332;2023-02-11T10:51:47;103300.78;;;24.60;38.09
39275;BME280;24980;48.874;2.332;2023-02-11T10:54:18;103294.07;;;24.58;38.08
39275;BME280;24980;48.874;2.332;2023-02-11T10:56:49;103293.61;;;24.57;38.08
39275;BME280;24980;48.874;2.332;2023-02-11T10:59:36;103293.16;;;24.59;38.07
39275;BME280;24980;48.874;2.332;2023-02-11T11:01:59;103290.45;;;24.61;38.05
39275;BME280;24980;48.874;2.332;2023-02-11T11:04:38;103291.87;;;24.65;38.03
39275;BME280;24980;48.874;2.332;2023-02-11T11:06:48;103293.44;;;24.68;38.02
39275;BME280;24980;48.874;2.332;2023-02-11T11:09:28;103287.61;;;24.70;38.04
39275;BME280;24980;48.874;2.332;2023-02-11T11:11:51;103290.08;;;24.70;38.06
39275;BME280;24980;48.874;2.332;2023-02-11T11:14:22;103283.86;;;24.70;38.08
39275;BME280;24980;48.874;2.332;2023-02-11T11:16:52;103281.91;;;24.68;38.10
39275;BME280;24980;48.874;2.332;2023-02-11T11:19:23;103280.43;;;24.66;38.14
39275;BME280;24980;48.874;2.332;2023-02-11T11:21:57;103275.55;;;24.63;38.16
39275;BME280;24980;48.874;2.332;2023-02-11T11:24:39;103276.97;;;24.61;38.18
39275;BME280;24980;48.874;2.332;2023-02-11T11:26:54;103284.17;;;24.59;38.18
39275;BME280;24980;48.874;2.332;2023-02-11T11:29:36;103280.72;;;24.57;38.20
39275;BME280;24980;48.874;2.332;2023-02-11T11:31:55;103277.48;;;24.55;38.21
39275;BME280;24980;48.874;2.332;2023-02-11T11:34:35;103276.26;;;24.52;38.20
39275;BME280;24980;48.874;2.332;2023-02-11T11:36:55;103268.43;;;24.50;38.20
39275;BME280;24980;48.874;2.332;2023-02-11T11:39:28;103270.34;;;24.48;38.19
39275;BME280;24980;48.874;2.332;2023-02-11T11:41:59;103274.89;;;24.46;38.19
39275;BME280;24980;48.874;2.332;2023-02-11T11:44:33;103271.64;;;24.43;38.20
39275;BME280;24980;48.874;2.332;2023-02-11T11:47:19;103265.06;;;24.40;38.19
39275;BME280;24980;48.874;2.332;2023-02-11T11:49:31;103265.30;;;24.39;38.19
39275;BME280;24980;48.874;2.332;2023-02-11T11:54:30;103268.48;;;24.36;38.18
39275;BME280;24980;48.874;2.332;2023-02-11T11:57:11;103267.34;;;24.35;38.17
39275;BME280;24980;48.874;2.332;2023-02-11T11:59:30;103263.95;;;24.33;38.15
39275;BME280;24980;48.874;2.332;2023-02-11T12:02:24;103261.89;;;24.32;38.14
39275;BME280;24980;48.874;2.332;2023-02-11T12:04:55;103256.19;;;24.31;38.14
39275;BME280;24980;48.874;2.332;2023-02-11T12:07:17;103254.48;;;24.30;38.13
39275;BME280;24980;48.874;2.332;2023-02-11T12:12:19;103252.64;;;24.27;38.12
39275;BME280;24980;48.874;2.332;2023-02-11T12:17:27;103241.61;;;24.25;38.10
39275;BME280;24980;48.874;2.332;2023-02-11T12:22:28;103245.87;;;24.22;38.12
39275;BME280;24980;48.874;2.332;2023-02-11T12:25:15;103247.39;;;24.22;38.11
39275;BME280;24980;48.874;2.332;2023-02-11T12:32:26;103236.91;;;24.18;38.08
39275;BME280;24980;48.874;2.332;2023-02-11T12:34:56;103245.64;;;24.18;38.07
39275;BME280;24980;48.874;2.332;2023-02-11T12:37:42;103235.86;;;24.15;38.07
39275;BME280;24980;48.874;2.332;2023-02-11T12:39:46;103242.58;;;24.17;38.07
39275;BME280;24980;48.874;2.332;2023-02-11T12:47:23;103236.48;;;24.12;38.07
39275;BME280;24980;48.874;2.332;2023-02-11T12:55:06;103234.55;;;24.12;38.06
39275;BME280;24980;48.874;2.332;2023-02-11T12:57:26;103232.89;;;24.14;38.05
39275;BME280;24980;48.874;2.332;2023-02-11T13:02:33;103229.84;;;24.14;38.04
39275;BME280;24980;48.874;2.332;2023-02-11T13:04:48;103227.20;;;24.14;38.02
39275;BME280;24980;48.874;2.332;2023-02-11T13:07:25;103222.73;;;24.11;38.03
39275;BME280;24980;48.874;2.332;2023-02-11T13:09:47;103222.80;;;24.10;38.04
39275;BME280;24980;48.874;2.332;2023-02-11T13:12:13;103219.75;;;24.10;38.03
39275;BME280;24980;48.874;2.332;2023-02-11T13:14:42;103218.93;;;24.11;38.06
39275;BME280;24980;48.874;2.332;2023-02-11T13:17:42;103216.59;;;24.13;38.08
39275;BME280;24980;48.874;2.332;2023-02-11T13:19:51;103215.06;;;24.17;38.08
39275;BME280;24980;48.874;2.332;2023-02-11T13:22:18;103212.62;;;24.19;38.12
39275;BME280;24980;48.874;2.332;2023-02-11T13:24:57;103210.27;;;24.21;38.12
39275;BME280;24980;48.874;2.332;2023-02-11T13:32:15;103203.98;;;24.25;38.07
39275;BME280;24980;48.874;2.332;2023-02-11T13:34:54;103199.59;;;24.26;38.06
39275;BME280;24980;48.874;2.332;2023-02-11T13:37:30;103196.02;;;24.26;38.06
39275;BME280;24980;48.874;2.332;2023-02-11T13:39:59;103195.08;;;24.25;38.06
39275;BME280;24980;48.874;2.332;2023-02-11T13:42:21;103194.64;;;24.25;38.07
39275;BME280;24980;48.874;2.332;2023-02-11T13:44:47;103192.00;;;24.24;38.07
39275;BME280;24980;48.874;2.332;2023-02-11T13:47:31;103191.25;;;24.25;38.04
39275;BME280;24980;48.874;2.332;2023-02-11T13:49:49;103186.92;;;24.23;38.04
39275;BME280;24980;48.874;2.332;2023-02-11T13:52:33;103183.52;;;24.23;38.04
39275;BME280;24980;48.874;2.332;2023-02-11T13:54:50;103180.06;;;24.23;38.03
39275;BME280;24980;48.874;2.332;2023-02-11T13:57:25;103182.45;;;24.24;38.02
39275;BME280;24980;48.874;2.332;2023-02-11T13:59:51;103181.68;;;24.24;38.01
39275;BME280;24980;48.874;2.332;2023-02-11T14:02:21;103179.02;;;24.22;38.02
39275;BME280;24980;48.874;2.332;2023-02-11T14:05:23;103178.62;;;24.23;38.02
39275;BME280;24980;48.874;2.332;2023-02-11T14:07:26;103171.40;;;24.22;38.02
39275;BME280;24980;48.874;2.332;2023-02-11T14:09:54;103170.28;;;24.22;38.03
39275;BME280;24980;48.874;2.332;2023-02-11T14:12:25;103170.05;;;24.22;38.01
39275;BME280;24980;48.874;2.332;2023-02-11T14:15:00;103167.14;;;24.21;38.01
39275;BME280;24980;48.874;2.332;2023-02-11T14:17:29;103169.94;;;24.20;38.02
39275;BME280;24980;48.874;2.332;2023-02-11T14:19:54;103167.98;;;24.20;38.01
39275;BME280;24980;48.874;2.332;2023-02-11T14:22:26;103166.98;;;24.21;38.01
39275;BME280;24980;48.874;2.332;2023-02-11T14:24:59;103168.93;;;24.21;38.01
39275;BME280;24980;48.874;2.332;2023-02-11T14:27:54;103162.95;;;24.19;38.02